createdAt,value
2023-04-01T00:00:35.972Z,36.10
2023-04-01T00:03:13.755Z,35.38
2023-04-01T00:05:49.037Z,33.42
2023-04-01T00:09:32.032Z,31.08
2023-04-01T00:12:03.536Z,29.40
2023-04-01T00:15:30.405Z,29.02
2023-04-01T00:21:38.332Z,29.42
2023-04-01T00:24:05.989Z,29.67
2023-04-01T00:26:33.582Z,30.00
2023-04-01T00:29:01.910Z,29.00
2023-04-01T00:31:30.021Z,29.38
2023-04-01T00:33:57.891Z,28.98
2023-04-01T00:36:26.247Z,29.85
2023-04-01T00:38:53.992Z,29.05
2023-04-01T00:41:22.568Z,28.55
2023-04-01T00:43:52.144Z,29.25
2023-04-01T00:46:20.494Z,28.70
2023-04-01T00:48:56.328Z,28.55
2023-04-01T00:51:28.278Z,29.75
2023-04-01T00:53:59.180Z,28.52
2023-04-01T00:56:33.300Z,30.85
2023-04-01T00:59:19.771Z,28.85
2023-04-01T01:01:48.186Z,29.27
2023-04-01T01:04:42.047Z,28.35
2023-04-01T01:07:15.003Z,26.77
2023-04-01T01:10:05.979Z,27.58
2023-04-01T01:12:47.090Z,27.90
2023-04-01T01:15:49.907Z,29.02
2023-04-01T01:18:17.529Z,31.13
2023-04-01T01:21:18.716Z,32.30
2023-04-01T01:24:23.825Z,32.50
2023-04-01T01:27:04.084Z,34.33
2023-04-01T01:29:57.131Z,33.05
2023-04-01T01:32:40.021Z,32.42
2023-04-01T01:35:44.734Z,33.47
2023-04-01T01:38:25.458Z,32.30
2023-04-01T01:41:02.467Z,31.35
2023-04-01T01:43:36.751Z,32.65
2023-04-01T01:46:10.882Z,34.58
2023-04-01T01:48:39.865Z,35.03
2023-04-01T01:51:07.943Z,35.65
2023-04-01T01:53:36.696Z,35.38
2023-04-01T01:56:04.809Z,37.58
2023-04-01T01:58:42.266Z,35.35
2023-04-01T02:01:18.487Z,36.97
2023-04-01T02:03:48.079Z,38.13
2023-04-01T02:06:20.211Z,39.20
2023-04-01T02:09:07.817Z,35.38
2023-04-01T02:11:49.583Z,35.08
2023-04-01T02:14:23.625Z,37.08
2023-04-01T02:16:58.229Z,34.65
2023-04-01T02:19:33.049Z,36.07
2023-04-01T02:22:03.897Z,36.05
2023-04-01T02:24:34.617Z,39.05
2023-04-01T02:27:02.585Z,39.53
2023-04-01T02:29:31.494Z,32.63
2023-04-01T02:32:00.104Z,30.65
2023-04-01T02:34:28.117Z,31.05
2023-04-01T02:36:57.201Z,34.08
2023-04-01T02:39:26.675Z,31.10
2023-04-01T02:41:54.393Z,29.50
2023-04-01T02:44:21.911Z,28.13
2023-04-01T02:46:49.596Z,31.30
2023-04-01T02:49:17.237Z,32.08
2023-04-01T02:51:46.023Z,27.20
2023-04-01T02:54:13.730Z,27.65
2023-04-01T02:56:41.430Z,29.13
2023-04-01T02:59:08.970Z,28.58
2023-04-01T03:01:36.759Z,29.42
2023-04-01T03:04:05.081Z,30.63
2023-04-01T03:06:32.656Z,34.10
2023-04-01T03:09:00.177Z,36.45
2023-04-01T03:11:28.036Z,31.75
2023-04-01T03:13:55.666Z,33.17
2023-04-01T03:16:23.747Z,32.10
2023-04-01T03:18:53.758Z,32.20
2023-04-01T03:21:24.153Z,29.23
2023-04-01T03:23:51.977Z,28.83
2023-04-01T03:26:20.168Z,26.05
2023-04-01T03:28:47.793Z,30.90
2023-04-01T03:31:17.241Z,29.15
2023-04-01T03:33:51.156Z,29.92
2023-04-01T03:36:19.325Z,27.90
2023-04-01T03:38:48.099Z,30.98
2023-04-01T03:41:22.144Z,31.45
2023-04-01T03:43:49.839Z,28.15
2023-04-01T03:46:21.928Z,28.27
2023-04-01T03:48:49.731Z,28.35
2023-04-01T03:51:17.427Z,29.65
2023-04-01T03:53:45.007Z,28.38
2023-04-01T03:56:13.099Z,29.48
2023-04-01T03:58:40.775Z,28.75
2023-04-01T04:01:22.079Z,27.15
2023-04-01T04:03:53.708Z,27.40
2023-04-01T04:06:24.239Z,25.52
2023-04-01T04:08:52.547Z,23.15
2023-04-01T04:11:21.200Z,24.40
2023-04-01T04:13:49.588Z,25.63
2023-04-01T04:16:18.481Z,26.88
2023-04-01T04:18:52.087Z,29.13
2023-04-01T04:21:20.659Z,29.05
2023-04-01T04:23:48.240Z,32.33
2023-04-01T04:26:18.264Z,33.33
2023-04-01T04:28:52.371Z,35.83
2023-04-01T04:31:22.365Z,33.80
2023-04-01T04:33:52.425Z,33.97
2023-04-01T04:36:21.143Z,34.17
2023-04-01T04:38:50.935Z,34.92
2023-04-01T04:41:19.863Z,35.05
2023-04-01T04:43:57.607Z,35.55
2023-04-01T04:46:27.132Z,33.33
2023-04-01T04:49:01.371Z,33.08
2023-04-01T04:51:29.397Z,32.00
2023-04-01T04:53:58.171Z,34.05
2023-04-01T04:56:37.564Z,35.08
2023-04-01T04:59:09.673Z,32.80
2023-04-01T05:01:46.525Z,33.30
2023-04-01T05:04:14.784Z,33.30
2023-04-01T05:06:45.354Z,33.17
2023-04-01T05:09:14.186Z,33.13
2023-04-01T05:11:42.459Z,35.38
2023-04-01T05:14:17.974Z,35.28
2023-04-01T05:16:55.490Z,33.60
2023-04-01T05:19:24.380Z,34.33
2023-04-01T05:21:53.932Z,32.83
2023-04-01T05:24:21.518Z,33.03
2023-04-01T05:26:49.257Z,33.33
2023-04-01T05:29:16.748Z,31.45
2023-04-01T05:31:46.289Z,32.35
2023-04-01T05:34:14.693Z,33.05
2023-04-01T05:36:43.110Z,32.72
2023-04-01T05:39:10.910Z,32.42
2023-04-01T05:41:39.913Z,31.42
2023-04-01T05:44:07.368Z,30.30
2023-04-01T05:46:40.583Z,31.25
2023-04-01T05:49:28.921Z,30.65
2023-04-01T05:51:57.380Z,29.75
2023-04-01T05:54:24.920Z,29.33
2023-04-01T05:56:52.743Z,29.02
2023-04-01T05:59:21.371Z,28.10
2023-04-01T06:01:49.029Z,28.08
2023-04-01T06:04:18.796Z,28.23
2023-04-01T06:06:47.218Z,28.33
2023-04-01T06:09:18.238Z,29.13
2023-04-01T06:12:09.880Z,29.58
2023-04-01T06:14:57.302Z,27.90
2023-04-01T06:17:44.286Z,27.17
2023-04-01T06:20:27.141Z,29.05
2023-04-01T06:23:11.844Z,29.25
2023-04-01T06:25:46.455Z,29.55
2023-04-01T06:28:38.882Z,31.38
2023-04-01T06:31:06.478Z,31.70
2023-04-01T06:34:07.903Z,32.45
2023-04-01T06:37:01.559Z,33.58
2023-04-01T06:40:10.007Z,34.45
2023-04-01T06:43:02.428Z,36.33
2023-04-01T06:46:08.934Z,34.85
2023-04-01T06:49:07.731Z,37.47
2023-04-01T06:52:36.101Z,37.22
2023-04-01T06:55:22.869Z,37.25
2023-04-01T06:58:20.759Z,34.92
2023-04-01T07:00:53.135Z,34.35
2023-04-01T07:03:38.668Z,33.45
2023-04-01T07:06:39.572Z,29.08
2023-04-01T07:09:13.061Z,24.48
2023-04-01T07:13:17.240Z,21.20
2023-04-01T07:20:22.037Z,21.48
2023-04-01T07:23:04.667Z,20.15
2023-04-01T07:26:25.449Z,20.60
2023-04-01T07:29:28.103Z,18.88
2023-04-01T07:32:19.380Z,16.90
2023-04-01T07:35:10.109Z,18.92
2023-04-01T07:37:43.603Z,18.80
2023-04-01T07:40:11.192Z,18.17
2023-04-01T07:43:06.351Z,17.83
2023-04-01T07:45:54.567Z,17.52
2023-04-01T08:02:16.934Z,14.40
2023-04-01T08:06:09.872Z,15.02
2023-04-01T08:09:07.045Z,14.45
2023-04-01T08:13:39.989Z,14.80
2023-04-01T08:31:37.585Z,13.98
2023-04-01T08:34:19.512Z,13.23
2023-04-01T08:37:10.705Z,13.55
2023-04-01T08:40:01.388Z,13.60
2023-04-01T08:43:05.771Z,14.57
2023-04-01T08:45:57.243Z,15.05
2023-04-01T08:48:58.859Z,14.43
2023-04-01T08:51:48.821Z,13.65
2023-04-01T08:54:30.727Z,14.77
2023-04-01T08:57:22.780Z,13.25
2023-04-01T09:00:21.847Z,13.85
2023-04-01T09:03:38.729Z,15.30
2023-04-01T09:06:32.863Z,15.23
2023-04-01T09:09:27.086Z,14.45
2023-04-01T09:12:13.869Z,14.00
2023-04-01T09:15:26.164Z,13.30
2023-04-01T09:18:24.668Z,12.35
2023-04-01T09:21:11.713Z,12.88
2023-04-01T09:23:58.037Z,12.48
2023-04-01T09:27:02.172Z,11.70
2023-04-01T09:30:04.140Z,12.73
2023-04-01T09:33:06.432Z,12.50
2023-04-01T09:35:51.910Z,11.65
2023-04-01T09:38:51.984Z,12.20
2023-04-01T09:41:58.050Z,12.02
2023-04-01T09:44:57.747Z,11.43
2023-04-01T09:47:47.346Z,11.60
2023-04-01T09:50:37.844Z,12.20
2023-04-01T09:53:30.632Z,11.93
2023-04-01T09:56:49.289Z,11.18
2023-04-01T10:00:46.892Z,10.65
2023-04-01T10:06:58.062Z,10.85
2023-04-01T10:09:54.979Z,12.13
2023-04-01T10:12:40.826Z,9.63
2023-04-01T10:15:37.219Z,10.43
2023-04-01T10:18:09.076Z,11.05
2023-04-01T10:20:36.757Z,11.02
2023-04-01T10:23:36.274Z,5.97
2023-04-01T10:26:10.090Z,7.90
2023-04-01T10:47:04.191Z,1.80
2023-04-01T11:21:53.358Z,1.60
2023-04-01T12:23:48.263Z,3.80
2023-04-01T12:27:40.212Z,3.08
2023-04-01T12:35:11.250Z,2.58
2023-04-01T12:38:46.829Z,2.55
2023-04-01T13:09:01.891Z,3.10
2023-04-01T13:12:29.969Z,3.25
2023-04-01T13:15:29.592Z,3.90
2023-04-01T13:18:18.755Z,3.78
2023-04-01T13:20:55.503Z,4.00
2023-04-01T13:24:11.160Z,4.03
2023-04-01T13:27:06.612Z,3.50
2023-04-01T13:29:49.607Z,3.17
2023-04-01T13:36:16.967Z,2.70
2023-04-01T13:39:48.061Z,2.47
2023-04-01T13:42:41.148Z,2.88
2023-04-01T13:45:27.904Z,2.60
2023-04-01T13:48:04.773Z,2.92
2023-04-01T13:51:08.759Z,2.67
2023-04-01T13:53:53.219Z,2.65
2023-04-01T13:56:35.623Z,2.30
2023-04-01T13:59:27.708Z,2.03
2023-04-01T14:02:34.312Z,2.53
2023-04-01T14:05:10.844Z,2.28
2023-04-01T14:07:57.157Z,2.10
2023-04-01T14:11:02.070Z,2.50
2023-04-01T14:14:08.248Z,2.83
2023-04-01T14:16:58.587Z,2.47
2023-04-01T14:19:47.636Z,2.60
2023-04-01T14:23:10.158Z,2.72
2023-04-01T14:25:46.917Z,2.50
2023-04-01T14:28:42.011Z,2.90
2023-04-01T14:31:24.637Z,2.70
2023-04-01T14:34:13.034Z,2.88
2023-04-01T14:36:58.679Z,2.60
2023-04-01T14:40:30.066Z,2.78
2023-04-01T14:43:21.258Z,2.60
2023-04-01T14:46:15.799Z,2.22
2023-04-01T14:49:03.844Z,0.98
2023-04-01T14:51:40.735Z,0.98
2023-04-01T14:54:30.483Z,1.10
2023-04-01T14:57:14.155Z,0.82
2023-04-01T14:59:50.883Z,0.70
2023-04-01T15:03:09.068Z,0.70
2023-04-01T15:05:54.766Z,2.80
2023-04-01T15:08:27.958Z,2.70
2023-04-01T15:10:58.422Z,2.70
2023-04-01T15:13:34.801Z,3.42
2023-04-01T15:16:02.262Z,3.00
2023-04-01T15:18:51.528Z,3.03
2023-04-01T15:21:35.185Z,2.90
2023-04-01T15:24:39.442Z,2.65
2023-04-01T15:27:13.939Z,2.95
2023-04-01T15:29:53.362Z,2.90
2023-04-01T15:32:31.284Z,3.08
2023-04-01T15:35:16.415Z,3.83
2023-04-01T15:37:56.949Z,3.22
2023-04-01T15:40:43.201Z,3.47
2023-04-01T15:43:25.535Z,3.38
2023-04-01T15:45:59.297Z,3.60
2023-04-01T15:48:40.592Z,3.85
2023-04-01T15:51:21.414Z,4.32
2023-04-01T15:54:03.953Z,3.17
2023-04-01T15:56:51.038Z,1.60
2023-04-01T16:00:12.021Z,1.60
2023-04-01T16:02:53.915Z,1.50
2023-04-01T16:05:27.097Z,1.05
2023-04-01T16:08:02.572Z,1.10
2023-04-01T16:10:45.580Z,0.70
2023-04-01T16:13:45.159Z,1.05
2023-04-01T16:17:01.793Z,1.40
2023-04-01T16:19:50.179Z,1.27
2023-04-01T16:22:27.662Z,1.27
2023-04-01T16:25:32.969Z,1.20
2023-04-01T16:28:35.288Z,1.08
2023-04-01T16:31:28.801Z,1.05
2023-04-01T16:34:17.234Z,0.98
2023-04-01T16:36:53.883Z,1.75
2023-04-01T16:39:36.413Z,1.10
2023-04-01T16:42:29.949Z,2.25
2023-04-01T16:45:09.446Z,1.85
2023-04-01T16:47:42.266Z,1.20
2023-04-01T16:50:25.121Z,1.20
2023-04-01T16:53:04.417Z,1.25
2023-04-01T16:55:52.113Z,1.27
2023-04-01T16:58:26.005Z,1.10
2023-04-01T17:01:10.184Z,1.08
2023-04-01T17:03:46.848Z,0.95
2023-04-01T17:06:45.225Z,1.00
2023-04-01T17:09:37.303Z,1.00
2023-04-01T17:12:45.191Z,1.00
2023-04-01T17:15:31.462Z,0.90
2023-04-01T17:18:05.022Z,1.10
2023-04-01T17:20:39.358Z,1.45
2023-04-01T17:23:21.354Z,2.20
2023-04-01T17:26:06.917Z,2.40
2023-04-01T17:29:16.327Z,2.80
2023-04-01T17:32:03.914Z,3.30
2023-04-01T17:34:34.926Z,4.07
2023-04-01T17:37:17.441Z,4.10
2023-04-01T17:39:54.483Z,4.10
2023-04-01T17:42:40.953Z,4.90
2023-04-01T17:45:17.596Z,5.20
2023-04-01T17:47:55.767Z,5.18
2023-04-01T17:50:37.602Z,5.15
2023-04-01T17:53:43.169Z,5.70
2023-04-01T17:56:23.536Z,5.70
2023-04-01T17:59:04.042Z,6.43
2023-04-01T18:01:44.350Z,6.50
2023-04-01T18:04:38.559Z,6.40
2023-04-01T18:07:26.621Z,6.88
2023-04-01T18:10:26.460Z,7.25
2023-04-01T18:13:31.444Z,7.93
2023-04-01T18:16:19.340Z,6.93
2023-04-01T18:19:02.726Z,7.35
2023-04-01T18:21:50.009Z,7.60
2023-04-01T18:24:43.126Z,7.72
2023-04-01T18:27:10.645Z,7.88
2023-04-01T18:29:46.941Z,7.28
2023-04-01T18:32:17.123Z,8.38
2023-04-01T18:35:15.572Z,8.07
2023-04-01T18:38:24.690Z,8.70
2023-04-01T18:41:14.092Z,8.02
2023-04-01T18:43:57.861Z,9.85
2023-04-01T18:46:46.980Z,9.80
2023-04-01T18:49:44.632Z,10.13
2023-04-01T18:52:21.436Z,10.25
2023-04-01T18:55:02.034Z,11.07
2023-04-01T18:57:58.274Z,11.15
2023-04-01T19:03:27.668Z,11.77
2023-04-01T19:06:00.136Z,11.10
2023-04-01T19:08:35.459Z,11.48
2023-04-01T19:11:18.050Z,12.13
2023-04-01T19:14:32.497Z,11.95
2023-04-01T19:17:11.009Z,12.50
2023-04-01T19:20:10.641Z,12.85
2023-04-01T19:22:53.231Z,12.05
2023-04-01T19:25:35.542Z,11.95
2023-04-01T19:28:33.192Z,11.95
2023-04-01T19:31:16.749Z,11.38
2023-04-01T19:33:55.987Z,12.10
2023-04-01T19:36:39.911Z,11.40
2023-04-01T19:39:46.550Z,10.65
2023-04-01T19:42:42.554Z,11.15
2023-04-01T19:45:31.792Z,10.68
2023-04-01T19:48:17.267Z,11.32
2023-04-01T19:50:48.870Z,11.00
2023-04-01T19:53:27.169Z,11.50
2023-04-01T19:56:18.092Z,12.27
2023-04-01T19:58:55.511Z,11.45
2023-04-01T20:01:44.907Z,11.57
2023-04-01T20:04:18.379Z,11.38
2023-04-01T20:06:51.911Z,11.63
2023-04-01T20:09:35.070Z,11.35
2023-04-01T20:12:13.232Z,11.07
2023-04-01T20:14:50.074Z,11.85
2023-04-01T20:17:25.851Z,11.55
2023-04-01T20:20:20.061Z,11.25
2023-04-01T20:34:00.734Z,14.13
2023-04-01T20:37:12.291Z,12.93
2023-04-01T20:40:05.438Z,12.85
2023-04-01T20:43:21.509Z,11.90
2023-04-01T20:46:10.410Z,10.63
2023-04-01T20:49:14.628Z,10.68
2023-04-01T20:51:57.216Z,9.55
2023-04-01T20:55:10.864Z,9.27
2023-04-01T20:57:47.354Z,9.20
2023-04-01T21:00:19.132Z,8.82
2023-04-01T21:03:19.210Z,9.63
2023-04-01T21:22:45.696Z,11.57
2023-04-01T21:26:09.895Z,13.60
2023-04-01T21:28:55.152Z,16.10
2023-04-01T21:31:22.629Z,17.73
2023-04-01T21:34:27.424Z,18.38
2023-04-01T21:36:55.099Z,18.98
2023-04-01T21:39:42.423Z,20.33
2023-04-01T21:42:43.789Z,19.83
2023-04-01T21:45:19.176Z,19.25
2023-04-01T21:48:08.369Z,19.35
2023-04-01T21:50:57.160Z,19.25
2023-04-01T21:54:09.960Z,19.52
2023-04-01T21:56:46.332Z,20.35
2023-04-01T21:59:44.594Z,19.77
2023-04-01T22:02:33.708Z,19.73
2023-04-01T22:05:23.634Z,19.40
2023-04-01T22:07:57.474Z,20.15
2023-04-01T22:10:42.573Z,19.27
2023-04-01T22:13:44.505Z,19.48
2023-04-01T22:16:41.080Z,19.63
2023-04-01T22:19:42.976Z,19.88
2023-04-01T22:22:52.720Z,20.52
2023-04-01T22:25:30.385Z,20.95
2023-04-01T22:50:35.483Z,23.00
2023-04-01T22:53:15.460Z,22.05
2023-04-01T22:56:03.366Z,23.23
2023-04-01T22:58:41.718Z,23.85
2023-04-01T23:01:17.859Z,23.15
2023-04-01T23:03:48.661Z,22.42
2023-04-01T23:06:28.056Z,22.52
2023-04-01T23:09:27.949Z,22.85
2023-04-01T23:12:04.529Z,23.45
2023-04-01T23:14:41.870Z,21.92
2023-04-01T23:17:36.564Z,21.63
2023-04-01T23:20:13.618Z,22.67
2023-04-01T23:22:57.801Z,22.58
2023-04-01T23:25:37.419Z,22.20
2023-04-01T23:28:41.540Z,23.23
2023-04-01T23:31:30.506Z,21.65
2023-04-01T23:34:01.893Z,22.98
2023-04-01T23:36:32.025Z,23.30
2023-04-01T23:39:04.596Z,22.42
2023-04-01T23:41:33.973Z,22.08
2023-04-01T23:44:06.460Z,22.25
2023-04-01T23:46:36.816Z,22.67
2023-04-01T23:49:06.268Z,22.58
2023-04-01T23:51:40.682Z,23.02
2023-04-01T23:54:28.100Z,22.33
2023-04-01T23:56:57.762Z,22.65
2023-04-01T23:59:30.140Z,22.67
